<?xml version="1.0" encoding="UTF-8" ?>
<gpx xmlns="http://www.topografix.com/GPX/1/1" version="1.1" creator="RouteGadget GPS Tracking" xmlns:xsi="http://www.w3.org/2001/XMLSchema-instance" xmlns:tp1="http://www.garmin.com/xmlschemas/TrackPointExtension/v1" xsi:schemaLocation="http://www.topografix.com/GPX/1/1 http://www.topografix.com/GPX/1/1/gpx.xsd http://www.garmin.com/xmlschemas/TrackPointExtension/v1 http://www.garmin.com/xmlschemas/TrackPointExtensionv1.xsd">
<trk>
<trkseg><trkpt lat="45.450058" lon="11.032042">
<time>2021-01-04T14:11:38Z</time>
</trkpt>
<trkpt lat="45.450064" lon="11.032052">
<time>2021-01-04T14:11:39Z</time>
</trkpt>
<trkpt lat="45.450094" lon="11.032089">
<time>2021-01-04T14:11:41Z</time>
</trkpt>
<trkpt lat="45.450121" lon="11.03211">
<time>2021-01-04T14:11:42Z</time>
</trkpt>
<trkpt lat="45.45015" lon="11.032127">
<time>2021-01-04T14:11:43Z</time>
</trkpt>
<trkpt lat="45.450324" lon="11.03228">
<time>2021-01-04T14:11:49Z</time>
</trkpt>
<trkpt lat="45.45048" lon="11.032425">
<time>2021-01-04T14:11:55Z</time>
</trkpt>
<trkpt lat="45.450649" lon="11.032524">
<time>2021-01-04T14:12:01Z</time>
</trkpt>
<trkpt lat="45.450675" lon="11.032544">
<time>2021-01-04T14:12:02Z</time>
</trkpt>
<trkpt lat="45.450732" lon="11.032585">
<time>2021-01-04T14:12:04Z</time>
</trkpt>
<trkpt lat="45.450759" lon="11.032606">
<time>2021-01-04T14:12:05Z</time>
</trkpt>
<trkpt lat="45.450929" lon="11.032761">
<time>2021-01-04T14:12:12Z</time>
</trkpt>
<trkpt lat="45.451047" lon="11.032912">
<time>2021-01-04T14:12:17Z</time>
</trkpt>
<trkpt lat="45.451121" lon="11.033018">
<time>2021-01-04T14:12:20Z</time>
</trkpt>
<trkpt lat="45.451275" lon="11.033226">
<time>2021-01-04T14:12:26Z</time>
</trkpt>
<trkpt lat="45.4513" lon="11.033257">
<time>2021-01-04T14:12:27Z</time>
</trkpt>
<trkpt lat="45.451342" lon="11.033324">
<time>2021-01-04T14:12:29Z</time>
</trkpt>
<trkpt lat="45.451385" lon="11.033382">
<time>2021-01-04T14:12:31Z</time>
</trkpt>
<trkpt lat="45.451472" lon="11.03351">
<time>2021-01-04T14:12:35Z</time>
</trkpt>
<trkpt lat="45.45161" lon="11.033707">
<time>2021-01-04T14:12:41Z</time>
</trkpt>
<trkpt lat="45.451731" lon="11.033933">
<time>2021-01-04T14:12:48Z</time>
</trkpt>
<trkpt lat="45.451865" lon="11.03415">
<time>2021-01-04T14:12:55Z</time>
</trkpt>
<trkpt lat="45.451949" lon="11.034372">
<time>2021-01-04T14:13:01Z</time>
</trkpt>
<trkpt lat="45.452038" lon="11.034598">
<time>2021-01-04T14:13:07Z</time>
</trkpt>
<trkpt lat="45.452107" lon="11.034813">
<time>2021-01-04T14:13:13Z</time>
</trkpt>
<trkpt lat="45.452301" lon="11.034775">
<time>2021-01-04T14:13:20Z</time>
</trkpt>
<trkpt lat="45.452498" lon="11.034737">
<time>2021-01-04T14:13:27Z</time>
</trkpt>
<trkpt lat="45.452685" lon="11.034715">
<time>2021-01-04T14:13:33Z</time>
</trkpt>
<trkpt lat="45.452873" lon="11.034679">
<time>2021-01-04T14:13:39Z</time>
</trkpt>
<trkpt lat="45.452985" lon="11.034475">
<time>2021-01-04T14:13:45Z</time>
</trkpt>
<trkpt lat="45.452947" lon="11.0342">
<time>2021-01-04T14:13:51Z</time>
</trkpt>
<trkpt lat="45.452922" lon="11.033946">
<time>2021-01-04T14:13:57Z</time>
</trkpt>
<trkpt lat="45.452865" lon="11.033786">
<time>2021-01-04T14:14:02Z</time>
</trkpt>
<trkpt lat="45.452686" lon="11.033745">
<time>2021-01-04T14:14:08Z</time>
</trkpt>
<trkpt lat="45.452684" lon="11.033711">
<time>2021-01-04T14:14:09Z</time>
</trkpt>
<trkpt lat="45.452791" lon="11.033497">
<time>2021-01-04T14:14:15Z</time>
</trkpt>
<trkpt lat="45.45299" lon="11.033432">
<time>2021-01-04T14:14:22Z</time>
</trkpt>
<trkpt lat="45.453017" lon="11.033402">
<time>2021-01-04T14:14:24Z</time>
</trkpt>
<trkpt lat="45.452838" lon="11.033479">
<time>2021-01-04T14:14:31Z</time>
</trkpt>
<trkpt lat="45.452808" lon="11.033465">
<time>2021-01-04T14:14:32Z</time>
</trkpt>
<trkpt lat="45.452772" lon="11.033394">
<time>2021-01-04T14:14:34Z</time>
</trkpt>
<trkpt lat="45.452778" lon="11.033118">
<time>2021-01-04T14:14:40Z</time>
</trkpt>
<trkpt lat="45.452801" lon="11.032845">
<time>2021-01-04T14:14:46Z</time>
</trkpt>
<trkpt lat="45.452718" lon="11.032609">
<time>2021-01-04T14:14:52Z</time>
</trkpt>
<trkpt lat="45.452679" lon="11.032514">
<time>2021-01-04T14:14:55Z</time>
</trkpt>
<trkpt lat="45.452627" lon="11.032261">
<time>2021-01-04T14:15:01Z</time>
</trkpt>
<trkpt lat="45.452572" lon="11.031975">
<time>2021-01-04T14:15:07Z</time>
</trkpt>
<trkpt lat="45.452539" lon="11.03168">
<time>2021-01-04T14:15:13Z</time>
</trkpt>
<trkpt lat="45.452534" lon="11.031397">
<time>2021-01-04T14:15:19Z</time>
</trkpt>
<trkpt lat="45.452555" lon="11.031124">
<time>2021-01-04T14:15:25Z</time>
</trkpt>
<trkpt lat="45.452562" lon="11.030944">
<time>2021-01-04T14:15:30Z</time>
</trkpt>
<trkpt lat="45.45245" lon="11.030959">
<time>2021-01-04T14:15:34Z</time>
</trkpt>
<trkpt lat="45.452264" lon="11.030999">
<time>2021-01-04T14:15:40Z</time>
</trkpt>
<trkpt lat="45.45208" lon="11.031033">
<time>2021-01-04T14:15:46Z</time>
</trkpt>
<trkpt lat="45.452" lon="11.031073">
<time>2021-01-04T14:15:49Z</time>
</trkpt>
<trkpt lat="45.452009" lon="11.031342">
<time>2021-01-04T14:15:55Z</time>
</trkpt>
<trkpt lat="45.452022" lon="11.031617">
<time>2021-01-04T14:16:01Z</time>
</trkpt>
<trkpt lat="45.452036" lon="11.0319">
<time>2021-01-04T14:16:07Z</time>
</trkpt>
<trkpt lat="45.452021" lon="11.032179">
<time>2021-01-04T14:16:13Z</time>
</trkpt>
<trkpt lat="45.452012" lon="11.03225">
<time>2021-01-04T14:16:15Z</time>
</trkpt>
<trkpt lat="45.451893" lon="11.03207">
<time>2021-01-04T14:16:21Z</time>
</trkpt>
<trkpt lat="45.451837" lon="11.03181">
<time>2021-01-04T14:16:27Z</time>
</trkpt>
<trkpt lat="45.451833" lon="11.031591">
<time>2021-01-04T14:16:32Z</time>
</trkpt>
<trkpt lat="45.451825" lon="11.031318">
<time>2021-01-04T14:16:38Z</time>
</trkpt>
<trkpt lat="45.451814" lon="11.03105">
<time>2021-01-04T14:16:44Z</time>
</trkpt>
<trkpt lat="45.451799" lon="11.030781">
<time>2021-01-04T14:16:50Z</time>
</trkpt>
<trkpt lat="45.451829" lon="11.030515">
<time>2021-01-04T14:16:56Z</time>
</trkpt>
<trkpt lat="45.451871" lon="11.030218">
<time>2021-01-04T14:17:02Z</time>
</trkpt>
<trkpt lat="45.45192" lon="11.029936">
<time>2021-01-04T14:17:08Z</time>
</trkpt>
<trkpt lat="45.451986" lon="11.02968">
<time>2021-01-04T14:17:14Z</time>
</trkpt>
<trkpt lat="45.452077" lon="11.029441">
<time>2021-01-04T14:17:20Z</time>
</trkpt>
<trkpt lat="45.452165" lon="11.029192">
<time>2021-01-04T14:17:26Z</time>
</trkpt>
<trkpt lat="45.452259" lon="11.028963">
<time>2021-01-04T14:17:32Z</time>
</trkpt>
<trkpt lat="45.452444" lon="11.028888">
<time>2021-01-04T14:17:38Z</time>
</trkpt>
<trkpt lat="45.452643" lon="11.028887">
<time>2021-01-04T14:17:44Z</time>
</trkpt>
<trkpt lat="45.452845" lon="11.028895">
<time>2021-01-04T14:17:50Z</time>
</trkpt>
<trkpt lat="45.453033" lon="11.028866">
<time>2021-01-04T14:17:56Z</time>
</trkpt>
<trkpt lat="45.45322" lon="11.028859">
<time>2021-01-04T14:18:02Z</time>
</trkpt>
<trkpt lat="45.453258" lon="11.028825">
<time>2021-01-04T14:18:04Z</time>
</trkpt>
<trkpt lat="45.453204" lon="11.02858">
<time>2021-01-04T14:18:10Z</time>
</trkpt>
<trkpt lat="45.453217" lon="11.028317">
<time>2021-01-04T14:18:16Z</time>
</trkpt>
<trkpt lat="45.453268" lon="11.02806">
<time>2021-01-04T14:18:22Z</time>
</trkpt>
<trkpt lat="45.453318" lon="11.027787">
<time>2021-01-04T14:18:28Z</time>
</trkpt>
<trkpt lat="45.453376" lon="11.027539">
<time>2021-01-04T14:18:34Z</time>
</trkpt>
<trkpt lat="45.45344" lon="11.027289">
<time>2021-01-04T14:18:40Z</time>
</trkpt>
<trkpt lat="45.453463" lon="11.027009">
<time>2021-01-04T14:18:47Z</time>
</trkpt>
<trkpt lat="45.453416" lon="11.026896">
<time>2021-01-04T14:18:51Z</time>
</trkpt>
<trkpt lat="45.453214" lon="11.026921">
<time>2021-01-04T14:18:58Z</time>
</trkpt>
<trkpt lat="45.453029" lon="11.026939">
<time>2021-01-04T14:19:04Z</time>
</trkpt>
<trkpt lat="45.452825" lon="11.026981">
<time>2021-01-04T14:19:11Z</time>
</trkpt>
<trkpt lat="45.452746" lon="11.027215">
<time>2021-01-04T14:19:16Z</time>
</trkpt>
<trkpt lat="45.452685" lon="11.027466">
<time>2021-01-04T14:19:21Z</time>
</trkpt>
<trkpt lat="45.452615" lon="11.027704">
<time>2021-01-04T14:19:26Z</time>
</trkpt>
<trkpt lat="45.452429" lon="11.027796">
<time>2021-01-04T14:19:32Z</time>
</trkpt>
<trkpt lat="45.452244" lon="11.02778">
<time>2021-01-04T14:19:38Z</time>
</trkpt>
<trkpt lat="45.45205" lon="11.027768">
<time>2021-01-04T14:19:45Z</time>
</trkpt>
<trkpt lat="45.451859" lon="11.027767">
<time>2021-01-04T14:19:51Z</time>
</trkpt>
<trkpt lat="45.451666" lon="11.027775">
<time>2021-01-04T14:19:57Z</time>
</trkpt>
<trkpt lat="45.451462" lon="11.027782">
<time>2021-01-04T14:20:03Z</time>
</trkpt>
<trkpt lat="45.451258" lon="11.027794">
<time>2021-01-04T14:20:09Z</time>
</trkpt>
<trkpt lat="45.451066" lon="11.027795">
<time>2021-01-04T14:20:15Z</time>
</trkpt>
<trkpt lat="45.450871" lon="11.027819">
<time>2021-01-04T14:20:21Z</time>
</trkpt>
<trkpt lat="45.450679" lon="11.02784">
<time>2021-01-04T14:20:27Z</time>
</trkpt>
<trkpt lat="45.450486" lon="11.027846">
<time>2021-01-04T14:20:33Z</time>
</trkpt>
<trkpt lat="45.450293" lon="11.027847">
<time>2021-01-04T14:20:39Z</time>
</trkpt>
<trkpt lat="45.450099" lon="11.027828">
<time>2021-01-04T14:20:45Z</time>
</trkpt>
<trkpt lat="45.449897" lon="11.027762">
<time>2021-01-04T14:20:52Z</time>
</trkpt>
<trkpt lat="45.449695" lon="11.027739">
<time>2021-01-04T14:20:59Z</time>
</trkpt>
<trkpt lat="45.449525" lon="11.02763">
<time>2021-01-04T14:21:05Z</time>
</trkpt>
<trkpt lat="45.4494" lon="11.027414">
<time>2021-01-04T14:21:12Z</time>
</trkpt>
<trkpt lat="45.449319" lon="11.027296">
<time>2021-01-04T14:21:16Z</time>
</trkpt>
<trkpt lat="45.449148" lon="11.02726">
<time>2021-01-04T14:21:25Z</time>
</trkpt>
<trkpt lat="45.44903" lon="11.027357">
<time>2021-01-04T14:21:31Z</time>
</trkpt>
<trkpt lat="45.449027" lon="11.027463">
<time>2021-01-04T14:21:37Z</time>
</trkpt>
<trkpt lat="45.449074" lon="11.027515">
<time>2021-01-04T14:21:41Z</time>
</trkpt>
<trkpt lat="45.449113" lon="11.027565">
<time>2021-01-04T14:21:44Z</time>
</trkpt>
<trkpt lat="45.449157" lon="11.02761">
<time>2021-01-04T14:21:47Z</time>
</trkpt>
<trkpt lat="45.449139" lon="11.027765">
<time>2021-01-04T14:21:52Z</time>
</trkpt>
<trkpt lat="45.449287" lon="11.027968">
<time>2021-01-04T14:21:59Z</time>
</trkpt>
<trkpt lat="45.449302" lon="11.028027">
<time>2021-01-04T14:22:04Z</time>
</trkpt>
<trkpt lat="45.449107" lon="11.028129">
<time>2021-01-04T14:22:11Z</time>
</trkpt>
<trkpt lat="45.448934" lon="11.028235">
<time>2021-01-04T14:22:17Z</time>
</trkpt>
<trkpt lat="45.448896" lon="11.028222">
<time>2021-01-04T14:22:18Z</time>
</trkpt>
<trkpt lat="45.448873" lon="11.028211">
<time>2021-01-04T14:22:19Z</time>
</trkpt>
<trkpt lat="45.448816" lon="11.02792">
<time>2021-01-04T14:22:26Z</time>
</trkpt>
<trkpt lat="45.448834" lon="11.027665">
<time>2021-01-04T14:22:32Z</time>
</trkpt>
<trkpt lat="45.44886" lon="11.027409">
<time>2021-01-04T14:22:38Z</time>
</trkpt>
<trkpt lat="45.448845" lon="11.027285">
<time>2021-01-04T14:22:41Z</time>
</trkpt>
<trkpt lat="45.448736" lon="11.027236">
<time>2021-01-04T14:22:47Z</time>
</trkpt>
<trkpt lat="45.448693" lon="11.027423">
<time>2021-01-04T14:22:55Z</time>
</trkpt>
<trkpt lat="45.448548" lon="11.027549">
<time>2021-01-04T14:23:02Z</time>
</trkpt>
<trkpt lat="45.448473" lon="11.027605">
<time>2021-01-04T14:23:07Z</time>
</trkpt>
<trkpt lat="45.44854" lon="11.027851">
<time>2021-01-04T14:23:15Z</time>
</trkpt>
<trkpt lat="45.448563" lon="11.027861">
<time>2021-01-04T14:23:17Z</time>
</trkpt>
<trkpt lat="45.448669" lon="11.028044">
<time>2021-01-04T14:23:26Z</time>
</trkpt>
<trkpt lat="45.448631" lon="11.028112">
<time>2021-01-04T14:23:28Z</time>
</trkpt>
<trkpt lat="45.448455" lon="11.028258">
<time>2021-01-04T14:23:34Z</time>
</trkpt>
<trkpt lat="45.448412" lon="11.028322">
<time>2021-01-04T14:23:36Z</time>
</trkpt>
<trkpt lat="45.448489" lon="11.028574">
<time>2021-01-04T14:23:43Z</time>
</trkpt>
<trkpt lat="45.448654" lon="11.028639">
<time>2021-01-04T14:23:49Z</time>
</trkpt>
<trkpt lat="45.448846" lon="11.028589">
<time>2021-01-04T14:23:56Z</time>
</trkpt>
<trkpt lat="45.449032" lon="11.028536">
<time>2021-01-04T14:24:03Z</time>
</trkpt>
<trkpt lat="45.449217" lon="11.028655">
<time>2021-01-04T14:24:11Z</time>
</trkpt>
<trkpt lat="45.449223" lon="11.028702">
<time>2021-01-04T14:24:12Z</time>
</trkpt>
<trkpt lat="45.449179" lon="11.028989">
<time>2021-01-04T14:24:18Z</time>
</trkpt>
<trkpt lat="45.449121" lon="11.029253">
<time>2021-01-04T14:24:24Z</time>
</trkpt>
<trkpt lat="45.449078" lon="11.029517">
<time>2021-01-04T14:24:30Z</time>
</trkpt>
<trkpt lat="45.449038" lon="11.029789">
<time>2021-01-04T14:24:37Z</time>
</trkpt>
<trkpt lat="45.449009" lon="11.029797">
<time>2021-01-04T14:24:38Z</time>
</trkpt>
<trkpt lat="45.448889" lon="11.029747">
<time>2021-01-04T14:24:44Z</time>
</trkpt>
<trkpt lat="45.448689" lon="11.029796">
<time>2021-01-04T14:24:51Z</time>
</trkpt>
<trkpt lat="45.448532" lon="11.029948">
<time>2021-01-04T14:24:58Z</time>
</trkpt>
<trkpt lat="45.448504" lon="11.029954">
<time>2021-01-04T14:25:01Z</time>
</trkpt>
<trkpt lat="45.448343" lon="11.029944">
<time>2021-01-04T14:25:06Z</time>
</trkpt>
<trkpt lat="45.448199" lon="11.029981">
<time>2021-01-04T14:25:10Z</time>
</trkpt>
<trkpt lat="45.448" lon="11.029987">
<time>2021-01-04T14:25:16Z</time>
</trkpt>
<trkpt lat="45.447807" lon="11.030072">
<time>2021-01-04T14:25:23Z</time>
</trkpt>
<trkpt lat="45.447611" lon="11.030128">
<time>2021-01-04T14:25:30Z</time>
</trkpt>
<trkpt lat="45.44743" lon="11.030199">
<time>2021-01-04T14:25:36Z</time>
</trkpt>
<trkpt lat="45.447231" lon="11.030276">
<time>2021-01-04T14:25:43Z</time>
</trkpt>
<trkpt lat="45.447054" lon="11.030314">
<time>2021-01-04T14:25:49Z</time>
</trkpt>
<trkpt lat="45.446878" lon="11.030426">
<time>2021-01-04T14:25:57Z</time>
</trkpt>
<trkpt lat="45.446774" lon="11.030624">
<time>2021-01-04T14:26:04Z</time>
</trkpt>
<trkpt lat="45.446693" lon="11.03067">
<time>2021-01-04T14:26:07Z</time>
</trkpt>
<trkpt lat="45.446524" lon="11.030857">
<time>2021-01-04T14:26:13Z</time>
</trkpt>
<trkpt lat="45.446358" lon="11.031041">
<time>2021-01-04T14:26:20Z</time>
</trkpt>
<trkpt lat="45.446205" lon="11.03119">
<time>2021-01-04T14:26:27Z</time>
</trkpt>
<trkpt lat="45.44601" lon="11.031313">
<time>2021-01-04T14:26:33Z</time>
</trkpt>
<trkpt lat="45.445831" lon="11.031385">
<time>2021-01-04T14:26:38Z</time>
</trkpt>
<trkpt lat="45.445656" lon="11.03142">
<time>2021-01-04T14:26:44Z</time>
</trkpt>
<trkpt lat="45.445605" lon="11.031226">
<time>2021-01-04T14:26:48Z</time>
</trkpt>
<trkpt lat="45.445565" lon="11.030969">
<time>2021-01-04T14:26:54Z</time>
</trkpt>
<trkpt lat="45.445542" lon="11.030714">
<time>2021-01-04T14:27:00Z</time>
</trkpt>
<trkpt lat="45.445612" lon="11.030477">
<time>2021-01-04T14:27:06Z</time>
</trkpt>
<trkpt lat="45.445749" lon="11.03026">
<time>2021-01-04T14:27:13Z</time>
</trkpt>
<trkpt lat="45.445789" lon="11.030253">
<time>2021-01-04T14:27:15Z</time>
</trkpt>
<trkpt lat="45.445824" lon="11.030321">
<time>2021-01-04T14:27:21Z</time>
</trkpt>
<trkpt lat="45.445841" lon="11.030316">
<time>2021-01-04T14:27:23Z</time>
</trkpt>
<trkpt lat="45.445927" lon="11.030224">
<time>2021-01-04T14:27:30Z</time>
</trkpt>
<trkpt lat="45.445934" lon="11.030219">
<time>2021-01-04T14:27:34Z</time>
</trkpt>
<trkpt lat="45.446024" lon="11.03011">
<time>2021-01-04T14:27:38Z</time>
</trkpt>
<trkpt lat="45.446125" lon="11.030095">
<time>2021-01-04T14:27:41Z</time>
</trkpt>
<trkpt lat="45.446361" lon="11.029981">
<time>2021-01-04T14:27:46Z</time>
</trkpt>
<trkpt lat="45.446396" lon="11.029982">
<time>2021-01-04T14:27:50Z</time>
</trkpt>
<trkpt lat="45.44646" lon="11.03008">
<time>2021-01-04T14:27:54Z</time>
</trkpt>
<trkpt lat="45.446461" lon="11.030161">
<time>2021-01-04T14:27:56Z</time>
</trkpt>
<trkpt lat="45.446507" lon="11.030257">
<time>2021-01-04T14:28:00Z</time>
</trkpt>
<trkpt lat="45.446533" lon="11.030449">
<time>2021-01-04T14:28:03Z</time>
</trkpt>
<trkpt lat="45.446564" lon="11.030569">
<time>2021-01-04T14:28:06Z</time>
</trkpt>
<trkpt lat="45.446507" lon="11.030688">
<time>2021-01-04T14:28:12Z</time>
</trkpt>
<trkpt lat="45.446418" lon="11.030921">
<time>2021-01-04T14:28:19Z</time>
</trkpt>
<trkpt lat="45.446367" lon="11.031029">
<time>2021-01-04T14:28:22Z</time>
</trkpt>
<trkpt lat="45.446213" lon="11.031179">
<time>2021-01-04T14:28:28Z</time>
</trkpt>
<trkpt lat="45.446051" lon="11.03131">
<time>2021-01-04T14:28:34Z</time>
</trkpt>
<trkpt lat="45.445859" lon="11.031428">
<time>2021-01-04T14:28:40Z</time>
</trkpt>
<trkpt lat="45.445709" lon="11.03149">
<time>2021-01-04T14:28:46Z</time>
</trkpt>
<trkpt lat="45.445758" lon="11.031737">
<time>2021-01-04T14:28:53Z</time>
</trkpt>
<trkpt lat="45.445835" lon="11.032008">
<time>2021-01-04T14:28:59Z</time>
</trkpt>
<trkpt lat="45.445948" lon="11.032228">
<time>2021-01-04T14:29:05Z</time>
</trkpt>
<trkpt lat="45.446127" lon="11.032291">
<time>2021-01-04T14:29:13Z</time>
</trkpt>
<trkpt lat="45.446288" lon="11.032115">
<time>2021-01-04T14:29:20Z</time>
</trkpt>
<trkpt lat="45.446331" lon="11.032055">
<time>2021-01-04T14:29:24Z</time>
</trkpt>
<trkpt lat="45.446419" lon="11.032279">
<time>2021-01-04T14:29:31Z</time>
</trkpt>
<trkpt lat="45.446516" lon="11.032273">
<time>2021-01-04T14:29:36Z</time>
</trkpt>
<trkpt lat="45.4467" lon="11.032143">
<time>2021-01-04T14:29:44Z</time>
</trkpt>
<trkpt lat="45.446761" lon="11.03189">
<time>2021-01-04T14:29:52Z</time>
</trkpt>
<trkpt lat="45.446822" lon="11.031656">
<time>2021-01-04T14:30:01Z</time>
</trkpt>
<trkpt lat="45.446854" lon="11.031512">
<time>2021-01-04T14:30:05Z</time>
</trkpt>
<trkpt lat="45.446789" lon="11.031424">
<time>2021-01-04T14:30:10Z</time>
</trkpt>
<trkpt lat="45.446723" lon="11.031236">
<time>2021-01-04T14:30:21Z</time>
</trkpt>
<trkpt lat="45.446599" lon="11.031106">
<time>2021-01-04T14:30:26Z</time>
</trkpt>
<trkpt lat="45.446387" lon="11.031195">
<time>2021-01-04T14:30:33Z</time>
</trkpt>
<trkpt lat="45.446186" lon="11.03127">
<time>2021-01-04T14:30:39Z</time>
</trkpt>
<trkpt lat="45.445987" lon="11.031346">
<time>2021-01-04T14:30:45Z</time>
</trkpt>
<trkpt lat="45.445809" lon="11.031461">
<time>2021-01-04T14:30:51Z</time>
</trkpt>
<trkpt lat="45.445638" lon="11.031419">
<time>2021-01-04T14:30:57Z</time>
</trkpt>
<trkpt lat="45.445586" lon="11.031135">
<time>2021-01-04T14:31:03Z</time>
</trkpt>
<trkpt lat="45.445577" lon="11.031031">
<time>2021-01-04T14:31:08Z</time>
</trkpt>
<trkpt lat="45.445579" lon="11.031052">
<time>2021-01-04T14:31:09Z</time>
</trkpt>
<trkpt lat="45.445617" lon="11.031254">
<time>2021-01-04T14:31:14Z</time>
</trkpt>
<trkpt lat="45.445644" lon="11.031518">
<time>2021-01-04T14:31:20Z</time>
</trkpt>
<trkpt lat="45.445669" lon="11.031683">
<time>2021-01-04T14:31:24Z</time>
</trkpt>
<trkpt lat="45.445756" lon="11.031909">
<time>2021-01-04T14:31:30Z</time>
</trkpt>
<trkpt lat="45.445764" lon="11.03192">
<time>2021-01-04T14:31:33Z</time>
</trkpt>
<trkpt lat="45.445731" lon="11.031665">
<time>2021-01-04T14:31:39Z</time>
</trkpt>
<trkpt lat="45.445714" lon="11.03149">
<time>2021-01-04T14:31:44Z</time>
</trkpt>
<trkpt lat="45.445893" lon="11.031417">
<time>2021-01-04T14:31:51Z</time>
</trkpt>
<trkpt lat="45.446061" lon="11.031289">
<time>2021-01-04T14:31:58Z</time>
</trkpt>
<trkpt lat="45.446199" lon="11.031118">
<time>2021-01-04T14:32:04Z</time>
</trkpt>
<trkpt lat="45.446351" lon="11.030973">
<time>2021-01-04T14:32:10Z</time>
</trkpt>
<trkpt lat="45.446517" lon="11.030841">
<time>2021-01-04T14:32:18Z</time>
</trkpt>
<trkpt lat="45.446644" lon="11.030705">
<time>2021-01-04T14:32:24Z</time>
</trkpt>
<trkpt lat="45.446758" lon="11.030483">
<time>2021-01-04T14:32:30Z</time>
</trkpt>
<trkpt lat="45.446858" lon="11.030361">
<time>2021-01-04T14:32:35Z</time>
</trkpt>
<trkpt lat="45.446979" lon="11.030351">
<time>2021-01-04T14:32:39Z</time>
</trkpt>
<trkpt lat="45.447078" lon="11.0306">
<time>2021-01-04T14:32:47Z</time>
</trkpt>
<trkpt lat="45.447177" lon="11.03086">
<time>2021-01-04T14:32:53Z</time>
</trkpt>
<trkpt lat="45.447214" lon="11.031011">
<time>2021-01-04T14:32:56Z</time>
</trkpt>
<trkpt lat="45.447258" lon="11.031129">
<time>2021-01-04T14:32:59Z</time>
</trkpt>
<trkpt lat="45.447384" lon="11.030947">
<time>2021-01-04T14:33:05Z</time>
</trkpt>
<trkpt lat="45.447414" lon="11.030936">
<time>2021-01-04T14:33:06Z</time>
</trkpt>
<trkpt lat="45.447522" lon="11.031013">
<time>2021-01-04T14:33:10Z</time>
</trkpt>
<trkpt lat="45.447534" lon="11.03105">
<time>2021-01-04T14:33:11Z</time>
</trkpt>
<trkpt lat="45.447474" lon="11.031342">
<time>2021-01-04T14:33:17Z</time>
</trkpt>
<trkpt lat="45.447338" lon="11.03155">
<time>2021-01-04T14:33:24Z</time>
</trkpt>
<trkpt lat="45.447248" lon="11.031658">
<time>2021-01-04T14:33:29Z</time>
</trkpt>
<trkpt lat="45.447297" lon="11.031839">
<time>2021-01-04T14:33:34Z</time>
</trkpt>
<trkpt lat="45.447486" lon="11.031826">
<time>2021-01-04T14:33:41Z</time>
</trkpt>
<trkpt lat="45.447681" lon="11.031817">
<time>2021-01-04T14:33:48Z</time>
</trkpt>
<trkpt lat="45.447753" lon="11.031921">
<time>2021-01-04T14:33:56Z</time>
</trkpt>
<trkpt lat="45.447807" lon="11.031944">
<time>2021-01-04T14:33:59Z</time>
</trkpt>
<trkpt lat="45.447964" lon="11.031953">
<time>2021-01-04T14:34:04Z</time>
</trkpt>
<trkpt lat="45.448119" lon="11.031774">
<time>2021-01-04T14:34:09Z</time>
</trkpt>
<trkpt lat="45.448155" lon="11.031601">
<time>2021-01-04T14:34:13Z</time>
</trkpt>
<trkpt lat="45.448106" lon="11.031527">
<time>2021-01-04T14:34:15Z</time>
</trkpt>
<trkpt lat="45.447978" lon="11.031478">
<time>2021-01-04T14:34:22Z</time>
</trkpt>
<trkpt lat="45.447932" lon="11.031473">
<time>2021-01-04T14:34:24Z</time>
</trkpt>
<trkpt lat="45.44793" lon="11.031427">
<time>2021-01-04T14:34:26Z</time>
</trkpt>
<trkpt lat="45.447908" lon="11.031153">
<time>2021-01-04T14:34:33Z</time>
</trkpt>
<trkpt lat="45.447733" lon="11.031024">
<time>2021-01-04T14:34:40Z</time>
</trkpt>
<trkpt lat="45.44772" lon="11.031005">
<time>2021-01-04T14:34:46Z</time>
</trkpt>
<trkpt lat="45.447888" lon="11.030869">
<time>2021-01-04T14:34:52Z</time>
</trkpt>
<trkpt lat="45.447994" lon="11.030637">
<time>2021-01-04T14:34:59Z</time>
</trkpt>
<trkpt lat="45.448008" lon="11.03037">
<time>2021-01-04T14:35:08Z</time>
</trkpt>
<trkpt lat="45.448009" lon="11.03035">
<time>2021-01-04T14:35:09Z</time>
</trkpt>
<trkpt lat="45.448015" lon="11.030353">
<time>2021-01-04T14:35:12Z</time>
</trkpt>
<trkpt lat="45.44814" lon="11.030497">
<time>2021-01-04T14:35:19Z</time>
</trkpt>
<trkpt lat="45.448169" lon="11.030517">
<time>2021-01-04T14:35:20Z</time>
</trkpt>
<trkpt lat="45.448242" lon="11.030558">
<time>2021-01-04T14:35:23Z</time>
</trkpt>
<trkpt lat="45.448354" lon="11.030804">
<time>2021-01-04T14:35:29Z</time>
</trkpt>
<trkpt lat="45.448502" lon="11.030979">
<time>2021-01-04T14:35:35Z</time>
</trkpt>
<trkpt lat="45.448638" lon="11.031168">
<time>2021-01-04T14:35:42Z</time>
</trkpt>
<trkpt lat="45.448646" lon="11.031193">
<time>2021-01-04T14:35:45Z</time>
</trkpt>
<trkpt lat="45.448534" lon="11.031002">
<time>2021-01-04T14:35:59Z</time>
</trkpt>
<trkpt lat="45.448373" lon="11.030835">
<time>2021-01-04T14:36:05Z</time>
</trkpt>
<trkpt lat="45.448341" lon="11.030718">
<time>2021-01-04T14:36:08Z</time>
</trkpt>
<trkpt lat="45.448415" lon="11.030492">
<time>2021-01-04T14:36:14Z</time>
</trkpt>
<trkpt lat="45.448585" lon="11.030636">
<time>2021-01-04T14:36:20Z</time>
</trkpt>
<trkpt lat="45.448763" lon="11.0307">
<time>2021-01-04T14:36:27Z</time>
</trkpt>
<trkpt lat="45.448758" lon="11.030713">
<time>2021-01-04T14:36:33Z</time>
</trkpt>
<trkpt lat="45.448566" lon="11.030605">
<time>2021-01-04T14:36:41Z</time>
</trkpt>
<trkpt lat="45.448383" lon="11.030503">
<time>2021-01-04T14:36:50Z</time>
</trkpt>
<trkpt lat="45.448216" lon="11.030598">
<time>2021-01-04T14:36:59Z</time>
</trkpt>
<trkpt lat="45.448147" lon="11.030861">
<time>2021-01-04T14:37:07Z</time>
</trkpt>
<trkpt lat="45.448138" lon="11.030907">
<time>2021-01-04T14:37:09Z</time>
</trkpt>
<trkpt lat="45.44813" lon="11.030926">
<time>2021-01-04T14:37:12Z</time>
</trkpt>
<trkpt lat="45.448074" lon="11.030947">
<time>2021-01-04T14:37:15Z</time>
</trkpt>
<trkpt lat="45.448004" lon="11.030965">
<time>2021-01-04T14:37:17Z</time>
</trkpt>
<trkpt lat="45.447963" lon="11.031053">
<time>2021-01-04T14:37:20Z</time>
</trkpt>
<trkpt lat="45.448086" lon="11.031245">
<time>2021-01-04T14:37:28Z</time>
</trkpt>
<trkpt lat="45.448181" lon="11.031393">
<time>2021-01-04T14:37:33Z</time>
</trkpt>
<trkpt lat="45.448186" lon="11.03158">
<time>2021-01-04T14:37:37Z</time>
</trkpt>
<trkpt lat="45.448316" lon="11.031632">
<time>2021-01-04T14:37:45Z</time>
</trkpt>
<trkpt lat="45.448269" lon="11.031728">
<time>2021-01-04T14:37:48Z</time>
</trkpt>
<trkpt lat="45.44843" lon="11.031881">
<time>2021-01-04T14:37:55Z</time>
</trkpt>
<trkpt lat="45.448616" lon="11.03194">
<time>2021-01-04T14:38:01Z</time>
</trkpt>
<trkpt lat="45.448805" lon="11.032005">
<time>2021-01-04T14:38:07Z</time>
</trkpt>
<trkpt lat="45.448835" lon="11.031991">
<time>2021-01-04T14:38:08Z</time>
</trkpt>
<trkpt lat="45.448997" lon="11.031844">
<time>2021-01-04T14:38:14Z</time>
</trkpt>
<trkpt lat="45.449179" lon="11.031691">
<time>2021-01-04T14:38:20Z</time>
</trkpt>
<trkpt lat="45.449347" lon="11.031554">
<time>2021-01-04T14:38:26Z</time>
</trkpt>
<trkpt lat="45.449547" lon="11.031472">
<time>2021-01-04T14:38:32Z</time>
</trkpt>
<trkpt lat="45.449592" lon="11.031396">
<time>2021-01-04T14:38:35Z</time>
</trkpt>
<trkpt lat="45.449561" lon="11.031293">
<time>2021-01-04T14:38:37Z</time>
</trkpt>
<trkpt lat="45.449474" lon="11.031047">
<time>2021-01-04T14:38:42Z</time>
</trkpt>
<trkpt lat="45.449378" lon="11.03088">
<time>2021-01-04T14:38:47Z</time>
</trkpt>
<trkpt lat="45.449336" lon="11.030878">
<time>2021-01-04T14:38:52Z</time>
</trkpt>
<trkpt lat="45.449419" lon="11.030892">
<time>2021-01-04T14:38:55Z</time>
</trkpt>
<trkpt lat="45.449548" lon="11.031129">
<time>2021-01-04T14:39:00Z</time>
</trkpt>
<trkpt lat="45.449589" lon="11.031226">
<time>2021-01-04T14:39:02Z</time>
</trkpt>
<trkpt lat="45.449696" lon="11.03146">
<time>2021-01-04T14:39:07Z</time>
</trkpt>
<trkpt lat="45.449839" lon="11.031662">
<time>2021-01-04T14:39:12Z</time>
</trkpt>
<trkpt lat="45.449973" lon="11.031838">
<time>2021-01-04T14:39:16Z</time>
</trkpt>
<trkpt lat="45.450075" lon="11.031946">
<time>2021-01-04T14:39:19Z</time>
</trkpt>
</trkseg>
<name>ali speciale</name>
</trk>
</gpx>